createdAt,value
2022-10-30T00:00:31.595Z,22.10
2022-10-30T00:03:27.395Z,21.80
2022-10-30T00:06:07.415Z,21.70
2022-10-30T00:08:43.343Z,21.80
2022-10-30T00:11:19.524Z,20.90
2022-10-30T00:13:55.251Z,20.60
2022-10-30T00:16:31.304Z,20.80
2022-10-30T00:19:07.689Z,21.50
2022-10-30T00:21:43.421Z,21.20
2022-10-30T00:24:19.281Z,19.60
2022-10-30T00:26:55.159Z,21.20
2022-10-30T00:29:30.899Z,19.80
2022-10-30T00:32:07.924Z,20.90
2022-10-30T00:34:43.707Z,21.90
2022-10-30T00:37:19.493Z,19.80
2022-10-30T00:39:55.282Z,20.00
2022-10-30T00:42:35.475Z,20.40
2022-10-30T00:45:18.502Z,20.70
2022-10-30T00:48:01.740Z,21.00
2022-10-30T00:50:40.485Z,20.80
2022-10-30T00:53:21.662Z,20.80
2022-10-30T00:56:03.993Z,19.10
2022-10-30T00:58:45.501Z,20.10
2022-10-30T01:01:27.155Z,19.90
2022-10-30T01:06:48.303Z,18.10
2022-10-30T01:09:25.517Z,21.20
2022-10-30T01:12:01.439Z,20.50
2022-10-30T01:14:41.125Z,20.20
2022-10-30T01:17:50.279Z,21.00
2022-10-30T01:20:49.746Z,21.80
2022-10-30T01:23:47.863Z,20.70
2022-10-30T01:26:38.218Z,19.70
2022-10-30T01:29:45.730Z,18.70
2022-10-30T01:32:50.798Z,17.00
2022-10-30T01:35:34.080Z,19.60
2022-10-30T01:38:19.620Z,19.50
2022-10-30T01:40:57.858Z,19.40
2022-10-30T01:43:37.271Z,20.20
2022-10-30T01:46:52.580Z,19.40
2022-10-30T01:50:20.039Z,19.30
2022-10-30T01:53:10.330Z,19.30
2022-10-30T01:56:07.432Z,21.20
2022-10-30T01:58:56.106Z,21.80
2022-10-30T02:01:35.797Z,22.40
2022-10-30T02:04:14.533Z,22.30
2022-10-30T02:06:50.949Z,22.50
2022-10-30T02:09:27.518Z,21.70
2022-10-30T02:12:04.983Z,22.40
2022-10-30T02:14:48.886Z,22.20
2022-10-30T02:17:25.639Z,21.40
2022-10-30T02:20:01.840Z,22.80
2022-10-30T02:22:39.114Z,21.20
2022-10-30T02:25:16.190Z,21.40
2022-10-30T02:27:52.036Z,22.00
2022-10-30T02:30:28.341Z,22.00
2022-10-30T02:33:04.852Z,23.30
2022-10-30T02:35:40.696Z,22.00
2022-10-30T02:38:17.045Z,20.80
2022-10-30T02:40:53.903Z,20.90
2022-10-30T02:43:29.864Z,21.30
2022-10-30T02:46:05.851Z,19.60
2022-10-30T02:48:41.783Z,20.80
2022-10-30T02:51:17.813Z,21.70
2022-10-30T02:53:53.780Z,21.30
2022-10-30T02:56:30.172Z,22.10
2022-10-30T02:59:06.559Z,22.10
2022-10-30T03:01:42.789Z,21.20
2022-10-30T03:04:19.783Z,20.80
2022-10-30T03:06:55.571Z,21.00
2022-10-30T03:09:32.716Z,19.00
2022-10-30T03:12:09.267Z,20.60
2022-10-30T03:14:45.097Z,21.20
2022-10-30T03:17:20.864Z,20.00
2022-10-30T03:19:57.519Z,20.90
2022-10-30T03:22:33.447Z,22.80
2022-10-30T03:25:10.967Z,19.70
2022-10-30T03:27:47.377Z,21.30
2022-10-30T03:30:23.465Z,21.30
2022-10-30T03:33:00.425Z,21.60
2022-10-30T03:35:37.860Z,21.20
2022-10-30T03:38:14.000Z,21.10
2022-10-30T03:40:49.976Z,21.20
2022-10-30T03:43:26.249Z,21.20
2022-10-30T03:46:02.744Z,21.80
2022-10-30T03:48:39.112Z,22.10
2022-10-30T03:51:15.035Z,21.60
2022-10-30T03:53:51.064Z,21.10
2022-10-30T03:56:27.025Z,22.90
2022-10-30T03:59:05.260Z,20.70
2022-10-30T04:01:44.238Z,21.60
2022-10-30T04:04:20.722Z,21.20
2022-10-30T04:06:56.528Z,22.10
2022-10-30T04:09:32.434Z,23.30
2022-10-30T04:12:09.382Z,21.20
2022-10-30T04:14:45.230Z,21.60
2022-10-30T04:17:20.987Z,20.10
2022-10-30T04:19:56.761Z,22.10
2022-10-30T04:22:32.968Z,22.00
2022-10-30T04:25:10.324Z,21.60
2022-10-30T04:27:49.442Z,22.00
2022-10-30T04:30:28.218Z,23.70
2022-10-30T04:33:05.769Z,22.70
2022-10-30T04:35:44.818Z,22.90
2022-10-30T04:38:25.862Z,21.80
2022-10-30T04:41:01.713Z,22.70
2022-10-30T04:43:54.510Z,22.80
2022-10-30T04:46:30.641Z,22.60
2022-10-30T04:49:08.740Z,23.10
2022-10-30T04:51:46.626Z,22.40
2022-10-30T04:54:23.272Z,22.60
2022-10-30T04:56:59.049Z,25.30
2022-10-30T04:59:34.965Z,21.80
2022-10-30T05:02:11.493Z,22.20
2022-10-30T05:04:47.636Z,23.80
2022-10-30T05:07:23.492Z,22.90
2022-10-30T05:09:59.329Z,22.30
2022-10-30T05:12:35.084Z,22.10
2022-10-30T05:15:14.228Z,22.30
2022-10-30T05:17:54.379Z,22.90
2022-10-30T05:20:30.427Z,23.90
2022-10-30T05:23:06.558Z,23.00
2022-10-30T05:25:42.968Z,23.40
2022-10-30T05:28:20.456Z,23.20
2022-10-30T05:31:00.864Z,22.00
2022-10-30T05:34:03.170Z,21.10
2022-10-30T05:36:42.474Z,20.80
2022-10-30T05:39:18.564Z,21.90
2022-10-30T05:41:56.979Z,20.90
2022-10-30T05:44:58.693Z,22.10
2022-10-30T05:47:30.139Z,22.60
2022-10-30T05:50:06.988Z,22.00
2022-10-30T05:52:43.051Z,22.30
2022-10-30T05:55:19.150Z,23.30
2022-10-30T05:58:20.565Z,21.80
2022-10-30T06:00:57.356Z,23.90
2022-10-30T06:03:44.489Z,23.60
2022-10-30T06:06:21.128Z,21.70
2022-10-30T06:08:57.287Z,22.00
2022-10-30T06:11:46.293Z,21.40
2022-10-30T06:14:22.858Z,19.20
2022-10-30T06:17:00.164Z,21.00
2022-10-30T06:23:01.931Z,19.60
2022-10-30T06:25:49.112Z,18.40
2022-10-30T06:28:47.551Z,20.20
2022-10-30T06:31:23.760Z,19.50
2022-10-30T06:33:59.536Z,19.80
2022-10-30T06:36:35.741Z,19.60
2022-10-30T06:39:11.710Z,20.20
2022-10-30T06:41:56.568Z,19.90
2022-10-30T06:44:49.017Z,20.20
2022-10-30T06:47:25.065Z,19.00
2022-10-30T06:50:01.126Z,19.10
2022-10-30T06:52:38.445Z,18.30
2022-10-30T06:55:16.583Z,18.70
2022-10-30T06:58:04.777Z,19.20
2022-10-30T07:00:52.174Z,16.50
2022-10-30T07:03:42.997Z,17.80
2022-10-30T07:06:18.922Z,17.20
2022-10-30T07:08:54.683Z,17.60
2022-10-30T07:11:30.655Z,16.70
2022-10-30T07:14:22.348Z,17.10
2022-10-30T07:17:09.660Z,15.70
2022-10-30T07:19:46.003Z,14.40
2022-10-30T07:22:21.892Z,14.50
2022-10-30T07:25:01.556Z,14.10
2022-10-30T07:28:24.099Z,14.50
2022-10-30T07:31:41.547Z,13.30
2022-10-30T07:34:38.687Z,14.90
2022-10-30T07:37:34.667Z,13.70
2022-10-30T07:40:15.999Z,13.80
2022-10-30T07:43:44.876Z,13.30
2022-10-30T07:46:44.044Z,13.20
2022-10-30T07:49:39.330Z,13.20
2022-10-30T07:52:17.260Z,13.30
2022-10-30T07:54:55.332Z,12.90
2022-10-30T07:58:26.771Z,11.80
2022-10-30T08:01:03.672Z,12.00
2022-10-30T08:03:40.977Z,12.50
2022-10-30T08:06:59.801Z,11.90
2022-10-30T08:09:35.842Z,11.80
2022-10-30T08:12:12.997Z,12.00
2022-10-30T08:14:49.394Z,12.10
2022-10-30T08:17:25.431Z,11.20
2022-10-30T08:20:01.381Z,11.30
2022-10-30T08:22:44.804Z,10.70
2022-10-30T08:25:24.756Z,10.70
2022-10-30T08:28:05.165Z,10.60
2022-10-30T08:30:45.674Z,10.70
2022-10-30T08:33:24.027Z,10.90
2022-10-30T08:36:07.469Z,10.30
2022-10-30T08:38:43.367Z,10.30
2022-10-30T08:41:23.317Z,10.50
2022-10-30T08:44:00.699Z,10.30
2022-10-30T08:46:41.655Z,10.10
2022-10-30T08:49:17.898Z,10.30
2022-10-30T08:51:59.326Z,10.30
2022-10-30T08:54:35.113Z,10.30
2022-10-30T08:57:11.436Z,10.40
2022-10-30T08:59:48.035Z,10.30
2022-10-30T09:02:41.985Z,15.50
2022-10-30T09:06:01.290Z,11.10
2022-10-30T09:08:56.031Z,10.40
2022-10-30T09:11:56.076Z,9.90
2022-10-30T09:14:32.106Z,9.00
2022-10-30T09:17:08.238Z,9.50
2022-10-30T09:19:45.183Z,9.50
2022-10-30T09:22:24.857Z,9.00
2022-10-30T09:25:01.437Z,9.80
2022-10-30T09:28:24.048Z,9.60
2022-10-30T09:31:28.860Z,10.50
2022-10-30T09:34:05.298Z,11.30
2022-10-30T09:36:49.733Z,9.80
2022-10-30T09:39:26.911Z,9.60
2022-10-30T09:42:37.742Z,10.10
2022-10-30T09:45:57.360Z,9.30
2022-10-30T09:49:17.644Z,9.40
2022-10-30T09:52:14.770Z,9.20
2022-10-30T09:55:06.743Z,8.80
2022-10-30T09:57:55.000Z,9.70
2022-10-30T10:00:40.562Z,9.30
2022-10-30T10:03:40.005Z,8.40
2022-10-30T10:06:38.263Z,8.40
2022-10-30T10:09:29.694Z,12.80
2022-10-30T10:12:58.728Z,19.30
2022-10-30T10:15:50.920Z,7.20
2022-10-30T10:18:34.485Z,7.30
2022-10-30T10:21:25.388Z,7.20
2022-10-30T10:24:06.520Z,8.00
2022-10-30T10:26:55.946Z,7.30
2022-10-30T10:30:06.068Z,6.80
2022-10-30T10:33:16.760Z,6.00
2022-10-30T10:36:10.109Z,7.00
2022-10-30T10:39:08.542Z,7.30
2022-10-30T10:42:06.093Z,7.50
2022-10-30T10:45:04.234Z,7.10
2022-10-30T10:48:24.111Z,7.30
2022-10-30T10:51:10.195Z,9.10
2022-10-30T10:53:55.025Z,7.40
2022-10-30T10:56:41.637Z,7.40
2022-10-30T10:59:24.615Z,7.60
2022-10-30T11:02:25.941Z,7.80
2022-10-30T11:05:13.267Z,7.60
2022-10-30T11:07:53.479Z,7.20
2022-10-30T11:10:29.693Z,7.00
2022-10-30T11:13:05.801Z,6.60
2022-10-30T11:15:59.269Z,6.70
2022-10-30T11:18:36.819Z,7.30
2022-10-30T11:21:20.159Z,8.70
2022-10-30T11:23:56.327Z,6.90
2022-10-30T11:26:37.988Z,7.30
2022-10-30T11:29:25.047Z,7.30
2022-10-30T11:32:19.297Z,6.90
2022-10-30T11:35:15.466Z,7.20
2022-10-30T11:38:07.648Z,6.60
2022-10-30T11:40:50.453Z,6.70
2022-10-30T11:43:28.449Z,6.10
2022-10-30T11:46:09.300Z,6.30
2022-10-30T11:48:55.154Z,7.40
2022-10-30T11:51:47.889Z,6.90
2022-10-30T11:54:25.292Z,6.70
2022-10-30T11:57:02.366Z,6.60
2022-10-30T11:59:38.303Z,6.40
2022-10-30T12:02:30.436Z,6.90
2022-10-30T12:05:43.711Z,7.10
2022-10-30T12:08:26.433Z,6.50
2022-10-30T12:11:07.933Z,7.10
2022-10-30T12:13:45.140Z,6.20
2022-10-30T12:16:22.942Z,7.30
2022-10-30T12:19:15.304Z,6.30
2022-10-30T12:21:54.751Z,7.20
2022-10-30T12:24:37.546Z,7.30
2022-10-30T12:27:22.486Z,6.60
2022-10-30T12:30:16.936Z,6.60
2022-10-30T12:33:01.056Z,6.80
2022-10-30T12:35:50.094Z,6.60
2022-10-30T12:38:36.484Z,6.30
2022-10-30T12:41:27.320Z,9.70
2022-10-30T12:44:16.071Z,6.60
2022-10-30T12:46:59.281Z,6.20
2022-10-30T12:49:42.964Z,6.00
2022-10-30T12:52:23.691Z,5.80
2022-10-30T12:55:07.157Z,5.60
2022-10-30T12:57:50.047Z,5.70
2022-10-30T13:00:26.973Z,5.70
2022-10-30T13:03:22.255Z,6.30
2022-10-30T13:06:07.724Z,6.00
2022-10-30T13:09:05.472Z,5.90
2022-10-30T13:11:54.273Z,6.30
2022-10-30T13:14:41.853Z,6.50
2022-10-30T13:17:18.923Z,6.40
2022-10-30T13:19:55.311Z,6.60
2022-10-30T13:22:43.007Z,6.90
2022-10-30T13:25:30.806Z,6.40
2022-10-30T13:28:21.054Z,6.90
2022-10-30T13:31:18.051Z,5.80
2022-10-30T13:34:06.108Z,6.40
2022-10-30T13:36:52.340Z,5.70
2022-10-30T13:39:39.350Z,6.10
2022-10-30T13:42:48.663Z,5.70
2022-10-30T13:46:01.359Z,6.80
2022-10-30T13:49:16.385Z,14.70
2022-10-30T13:52:07.577Z,6.70
2022-10-30T13:54:49.718Z,6.70
2022-10-30T13:57:38.952Z,6.50
2022-10-30T14:00:24.707Z,6.40
2022-10-30T14:03:43.882Z,5.90
2022-10-30T14:06:38.788Z,6.00
2022-10-30T14:09:32.747Z,6.00
2022-10-30T14:12:47.520Z,5.50
2022-10-30T14:15:42.343Z,6.10
2022-10-30T14:19:02.330Z,5.70
2022-10-30T14:21:56.585Z,6.10
2022-10-30T14:24:35.348Z,6.80
2022-10-30T14:27:27.648Z,7.70
2022-10-30T14:30:04.715Z,6.80
2022-10-30T14:32:51.720Z,7.60
2022-10-30T14:35:43.403Z,6.90
2022-10-30T14:38:35.814Z,11.30
2022-10-30T14:41:46.280Z,13.20
2022-10-30T14:45:09.523Z,12.90
2022-10-30T14:48:17.836Z,10.30
2022-10-30T14:51:17.823Z,8.50
2022-10-30T14:54:06.396Z,8.20
2022-10-30T14:56:51.572Z,7.60
2022-10-30T14:59:36.849Z,7.90
2022-10-30T15:02:49.542Z,8.40
2022-10-30T15:05:49.954Z,7.20
2022-10-30T15:09:22.031Z,7.20
2022-10-30T15:12:50.795Z,7.00
2022-10-30T15:15:27.773Z,8.70
2022-10-30T15:18:11.700Z,6.80
2022-10-30T15:20:53.698Z,9.10
2022-10-30T15:23:35.484Z,8.70
2022-10-30T15:28:57.897Z,11.70
2022-10-30T15:31:34.500Z,11.60
2022-10-30T15:34:25.188Z,10.00
2022-10-30T15:37:01.301Z,9.60
2022-10-30T15:39:37.297Z,11.00
2022-10-30T15:42:15.126Z,9.40
2022-10-30T15:44:53.313Z,9.40
2022-10-30T15:47:30.148Z,27.10
2022-10-30T15:50:07.858Z,11.10
2022-10-30T15:52:47.139Z,7.60
2022-10-30T15:55:29.544Z,7.30
2022-10-30T15:58:08.175Z,9.00
2022-10-30T16:00:55.419Z,8.20
2022-10-30T16:03:32.873Z,19.60
2022-10-30T16:06:21.598Z,8.80
2022-10-30T16:08:57.750Z,7.70
2022-10-30T16:11:33.924Z,7.70
2022-10-30T16:14:23.809Z,8.20
2022-10-30T16:17:04.313Z,7.70
2022-10-30T16:19:51.709Z,8.10
2022-10-30T16:22:34.905Z,8.10
2022-10-30T16:25:18.720Z,10.70
2022-10-30T16:27:54.898Z,8.70
2022-10-30T16:30:32.103Z,8.30
2022-10-30T16:33:09.653Z,8.90
2022-10-30T16:35:56.015Z,8.80
2022-10-30T16:38:38.283Z,8.60
2022-10-30T16:41:15.165Z,8.70
2022-10-30T16:44:21.575Z,9.30
2022-10-30T16:47:05.353Z,14.10
2022-10-30T16:49:49.600Z,10.50
2022-10-30T16:52:32.516Z,10.30
2022-10-30T16:55:17.258Z,9.60
2022-10-30T16:57:59.783Z,9.60
2022-10-30T17:00:40.602Z,9.80
2022-10-30T17:03:23.236Z,22.00
2022-10-30T17:06:25.926Z,18.10
2022-10-30T17:09:09.926Z,12.50
2022-10-30T17:12:03.953Z,10.20
2022-10-30T17:14:54.210Z,10.60
2022-10-30T17:17:36.001Z,10.10
2022-10-30T17:23:22.689Z,9.20
2022-10-30T17:25:59.917Z,9.00
2022-10-30T17:28:39.416Z,9.40
2022-10-30T17:31:45.106Z,9.80
2022-10-30T17:34:24.658Z,9.60
2022-10-30T17:37:00.785Z,16.70
2022-10-30T17:39:36.979Z,12.70
2022-10-30T17:42:14.943Z,10.10
2022-10-30T17:44:51.596Z,9.50
2022-10-30T17:47:28.523Z,9.50
2022-10-30T17:50:05.595Z,9.70
2022-10-30T17:52:41.501Z,7.90
2022-10-30T17:55:34.787Z,8.90
2022-10-30T17:58:11.260Z,8.90
2022-10-30T18:00:47.181Z,9.40
2022-10-30T18:03:23.054Z,11.80
2022-10-30T18:06:00.654Z,11.50
2022-10-30T18:08:36.574Z,10.30
2022-10-30T18:11:16.477Z,10.70
2022-10-30T18:13:53.975Z,10.80
2022-10-30T18:16:30.386Z,11.50
2022-10-30T18:19:10.512Z,10.70
2022-10-30T18:21:48.572Z,34.10
2022-10-30T18:24:24.733Z,17.60
2022-10-30T18:27:01.068Z,13.20
2022-10-30T18:29:36.988Z,12.50
2022-10-30T18:32:17.591Z,11.70
2022-10-30T18:34:53.269Z,11.30
2022-10-30T18:37:29.135Z,13.20
2022-10-30T18:40:05.516Z,12.30
2022-10-30T18:42:42.340Z,11.60
2022-10-30T18:45:34.053Z,11.20
2022-10-30T18:48:11.126Z,12.40
2022-10-30T18:50:46.921Z,13.30
2022-10-30T18:53:23.556Z,11.60
2022-10-30T18:55:59.478Z,12.60
2022-10-30T18:58:35.474Z,11.30
2022-10-30T19:01:12.749Z,11.10
2022-10-30T19:03:50.033Z,12.20
2022-10-30T19:06:27.814Z,12.60
2022-10-30T19:09:03.769Z,10.90
2022-10-30T19:11:44.228Z,12.50
2022-10-30T19:14:20.765Z,26.60
2022-10-30T19:16:56.690Z,21.10
2022-10-30T19:19:32.462Z,15.40
2022-10-30T19:22:08.437Z,13.60
2022-10-30T19:24:45.453Z,15.00
2022-10-30T19:27:24.993Z,14.50
2022-10-30T19:30:01.069Z,14.20
2022-10-30T19:32:36.820Z,15.40
2022-10-30T19:35:15.465Z,14.50
2022-10-30T19:37:51.716Z,15.10
2022-10-30T19:40:33.353Z,14.80
2022-10-30T19:43:09.662Z,14.00
2022-10-30T19:45:46.611Z,13.90
2022-10-30T19:48:55.389Z,14.70
2022-10-30T19:51:25.211Z,14.60
2022-10-30T19:54:04.392Z,19.30
2022-10-30T19:56:42.287Z,25.40
2022-10-30T19:59:19.311Z,17.50
2022-10-30T20:01:55.493Z,17.10
2022-10-30T20:04:31.600Z,17.40
2022-10-30T20:07:11.256Z,16.20
2022-10-30T20:09:47.655Z,16.00
2022-10-30T20:12:23.542Z,17.50
2022-10-30T20:15:01.751Z,17.50
2022-10-30T20:17:37.614Z,17.10
2022-10-30T20:20:21.791Z,19.60
2022-10-30T20:22:58.179Z,25.70
2022-10-30T20:25:34.104Z,23.40
2022-10-30T20:28:24.873Z,20.40
2022-10-30T20:31:01.042Z,21.40
2022-10-30T20:33:37.714Z,19.60
2022-10-30T20:36:15.394Z,19.20
2022-10-30T20:38:51.400Z,20.20
2022-10-30T20:41:31.445Z,19.50
2022-10-30T20:44:08.398Z,20.80
2022-10-30T20:46:44.481Z,19.70
2022-10-30T20:49:21.291Z,20.50
2022-10-30T20:51:57.105Z,21.10
2022-10-30T20:54:32.937Z,20.40
2022-10-30T20:57:08.898Z,18.40
2022-10-30T20:59:44.775Z,19.70
2022-10-30T21:02:20.870Z,19.80
2022-10-30T21:04:58.287Z,21.10
2022-10-30T21:07:39.470Z,18.20
2022-10-30T21:10:16.054Z,19.20
2022-10-30T21:12:55.090Z,19.30
2022-10-30T21:15:31.194Z,19.70
2022-10-30T21:18:07.264Z,19.80
2022-10-30T21:20:43.037Z,18.70
2022-10-30T21:23:19.009Z,41.20
2022-10-30T21:26:03.206Z,29.80
2022-10-30T21:28:39.516Z,20.00
2022-10-30T21:31:17.092Z,19.30
2022-10-30T21:33:53.064Z,19.00
2022-10-30T21:36:29.128Z,18.70
2022-10-30T21:39:05.695Z,18.20
2022-10-30T21:41:41.644Z,17.70
2022-10-30T21:44:17.710Z,17.20
2022-10-30T21:46:54.724Z,17.80
2022-10-30T21:49:30.624Z,17.90
2022-10-30T21:52:06.615Z,18.20
2022-10-30T21:54:42.764Z,17.90
2022-10-30T21:57:18.613Z,15.70
2022-10-30T21:59:54.419Z,16.30
2022-10-30T22:02:30.226Z,15.70
2022-10-30T22:05:06.494Z,16.40
2022-10-30T22:07:42.644Z,17.20
2022-10-30T22:10:18.708Z,17.30
2022-10-30T22:12:54.470Z,16.90
2022-10-30T22:15:30.524Z,16.30
2022-10-30T22:18:06.684Z,16.60
2022-10-30T22:20:42.751Z,17.00
2022-10-30T22:23:18.904Z,16.40
2022-10-30T22:26:02.804Z,16.30
2022-10-30T22:28:39.259Z,16.70
2022-10-30T22:31:18.107Z,17.10
2022-10-30T22:33:54.168Z,16.40
2022-10-30T22:36:33.115Z,17.70
2022-10-30T22:39:14.007Z,16.30
2022-10-30T22:41:49.831Z,18.10
2022-10-30T22:44:25.661Z,17.60
2022-10-30T22:47:01.667Z,18.70
2022-10-30T22:49:37.609Z,17.80
2022-10-30T22:52:13.266Z,21.70
2022-10-30T22:54:48.978Z,20.00
2022-10-30T22:57:24.687Z,18.70
2022-10-30T23:00:00.611Z,17.70
2022-10-30T23:02:36.781Z,18.20
2022-10-30T23:05:13.352Z,17.90
2022-10-30T23:07:51.727Z,18.30
2022-10-30T23:10:27.572Z,18.60
2022-10-30T23:13:03.351Z,18.70
2022-10-30T23:15:42.570Z,18.10
2022-10-30T23:18:18.931Z,17.80
2022-10-30T23:20:59.780Z,17.90
2022-10-30T23:23:39.666Z,22.10
2022-10-30T23:26:20.874Z,23.10
2022-10-30T23:28:59.632Z,18.70
2022-10-30T23:31:39.742Z,17.30
2022-10-30T23:34:17.895Z,17.00
2022-10-30T23:36:57.646Z,17.80
2022-10-30T23:39:36.686Z,17.60
2022-10-30T23:42:12.561Z,16.70
2022-10-30T23:44:48.319Z,17.50
2022-10-30T23:47:24.196Z,18.20
2022-10-30T23:50:00.143Z,18.30
2022-10-30T23:52:36.090Z,17.60
2022-10-30T23:55:14.072Z,18.10
2022-10-30T23:57:51.624Z,17.60
